Terminal Aerodrome Forecast
Issued by NWS Cleveland, OH

Home | Current Version | Previous Version | Graphics & Text | Print | Product List | Glossary On
Versions: 1 2 3 4 5 6 7 8 9 10 11 12 13 14 15 16 17 18
000
FTUS41 KCLE 150532
TAFMFD
TAF
KMFD 150532Z 1506/1606 13008KT P6SM BKN120
     FM151000 14010KT P6SM VCSH OVC070
     FM151400 15010KT 3SM -SN OVC020
      TEMPO 1515/1518 2SM -SN OVC015
     FM151800 17011KT 1 1/2SM -SN OVC010
     FM160000 20010KT P6SM OVC010
     FM160500 24010KT P6SM BKN010=

USA.gov is the U.S. government's official web portal to all federal, state and local government web resources and services.